sensor_id;sensor_type;location;lat;lon;timestamp;pressure;altitude;pressure_sealevel;temperature;humidity
52949;BME280;38812;50.942;3.644;2023-07-29T00:00:36;100811.59;;;16.26;100.00
52949;BME280;38812;50.942;3.644;2023-07-29T00:03:02;100823.06;;;16.27;100.00
52949;BME280;38812;50.942;3.644;2023-07-29T00:05:27;100812.63;;;16.24;100.00
52949;BME280;38812;50.942;3.644;2023-07-29T00:07:53;100825.66;;;16.28;100.00
52949;BME280;38812;50.942;3.644;2023-07-29T00:10:18;100814.03;;;16.31;100.00
52949;BME280;38812;50.942;3.644;2023-07-29T00:12:43;100820.06;;;16.34;100.00
52949;BME280;38812;50.942;3.644;2023-07-29T00:15:09;100800.44;;;16.20;100.00
52949;BME280;38812;50.942;3.644;2023-07-29T00:17:35;100819.56;;;16.26;100.00
52949;BME280;38812;50.942;3.644;2023-07-29T00:20:00;100824.91;;;16.25;100.00
52949;BME280;38812;50.942;3.644;2023-07-29T00:22:25;100812.09;;;16.16;100.00
52949;BME280;38812;50.942;3.644;2023-07-29T00:24:52;100816.66;;;16.12;100.00
52949;BME280;38812;50.942;3.644;2023-07-29T00:27:20;100831.38;;;16.19;100.00
52949;BME280;38812;50.942;3.644;2023-07-29T00:29:45;100823.34;;;16.21;100.00
52949;BME280;38812;50.942;3.644;2023-07-29T00:32:11;100807.31;;;16.03;100.00
52949;BME280;38812;50.942;3.644;2023-07-29T00:34:36;100838.47;;;16.19;100.00
52949;BME280;38812;50.942;3.644;2023-07-29T00:37:01;100840.19;;;16.20;100.00
52949;BME280;38812;50.942;3.644;2023-07-29T00:39:27;100837.53;;;16.20;100.00
52949;BME280;38812;50.942;3.644;2023-07-29T00:41:52;100810.56;;;16.10;100.00
52949;BME280;38812;50.942;3.644;2023-07-29T00:44:17;100772.00;;;16.03;100.00
52949;BME280;38812;50.942;3.644;2023-07-29T00:46:45;100795.56;;;16.29;100.00
52949;BME280;38812;50.942;3.644;2023-07-29T00:49:11;100782.38;;;16.28;100.00
52949;BME280;38812;50.942;3.644;2023-07-29T00:51:36;100781.09;;;16.18;100.00
52949;BME280;38812;50.942;3.644;2023-07-29T00:54:02;100765.72;;;16.05;100.00
52949;BME280;38812;50.942;3.644;2023-07-29T00:56:27;100777.50;;;16.19;100.00
52949;BME280;38812;50.942;3.644;2023-07-29T00:58:54;100768.63;;;16.20;100.00
52949;BME280;38812;50.942;3.644;2023-07-29T01:01:24;100748.09;;;16.04;100.00
52949;BME280;38812;50.942;3.644;2023-07-29T01:03:49;100741.25;;;16.00;100.00
52949;BME280;38812;50.942;3.644;2023-07-29T01:06:23;100775.19;;;16.11;100.00
52949;BME280;38812;50.942;3.644;2023-07-29T01:09:02;100762.56;;;15.97;100.00
52949;BME280;38812;50.942;3.644;2023-07-29T01:16:39;100767.75;;;16.00;100.00
52949;BME280;38812;50.942;3.644;2023-07-29T01:19:06;100760.84;;;15.96;100.00
52949;BME280;38812;50.942;3.644;2023-07-29T01:21:35;100743.91;;;15.80;100.00
52949;BME280;38812;50.942;3.644;2023-07-29T01:24:00;100788.00;;;16.01;100.00
52949;BME280;38812;50.942;3.644;2023-07-29T01:26:26;100785.75;;;15.92;100.00
52949;BME280;38812;50.942;3.644;2023-07-29T01:28:53;100801.53;;;15.95;100.00
52949;BME280;38812;50.942;3.644;2023-07-29T01:31:33;100811.25;;;15.95;100.00
52949;BME280;38812;50.942;3.644;2023-07-29T01:34:07;100809.72;;;15.89;100.00
52949;BME280;38812;50.942;3.644;2023-07-29T01:36:35;100802.91;;;15.84;100.00
52949;BME280;38812;50.942;3.644;2023-07-29T01:39:05;100773.25;;;15.75;100.00
52949;BME280;38812;50.942;3.644;2023-07-29T01:41:30;100792.78;;;15.93;100.00
52949;BME280;38812;50.942;3.644;2023-07-29T01:43:57;100751.88;;;15.80;100.00
52949;BME280;38812;50.942;3.644;2023-07-29T01:46:22;100757.72;;;15.87;100.00
52949;BME280;38812;50.942;3.644;2023-07-29T01:48:47;100768.25;;;15.88;100.00
52949;BME280;38812;50.942;3.644;2023-07-29T01:51:13;100789.06;;;15.97;100.00
52949;BME280;38812;50.942;3.644;2023-07-29T01:53:39;100763.09;;;15.85;100.00
52949;BME280;38812;50.942;3.644;2023-07-29T01:56:04;100800.41;;;16.01;100.00
52949;BME280;38812;50.942;3.644;2023-07-29T01:58:30;100776.00;;;15.93;100.00
52949;BME280;38812;50.942;3.644;2023-07-29T02:00:55;100768.13;;;15.91;100.00
52949;BME280;38812;50.942;3.644;2023-07-29T02:03:20;100790.38;;;16.07;100.00
52949;BME280;38812;50.942;3.644;2023-07-29T02:05:46;100755.22;;;15.84;100.00
52949;BME280;38812;50.942;3.644;2023-07-29T02:08:11;100810.56;;;16.10;100.00
52949;BME280;38812;50.942;3.644;2023-07-29T02:10:36;100780.44;;;15.92;100.00
52949;BME280;38812;50.942;3.644;2023-07-29T02:13:03;100794.81;;;16.07;100.00
52949;BME280;38812;50.942;3.644;2023-07-29T02:15:28;100808.13;;;16.05;100.00
52949;BME280;38812;50.942;3.644;2023-07-29T02:17:54;100803.69;;;16.06;100.00
52949;BME280;38812;50.942;3.644;2023-07-29T02:20:20;100803.91;;;16.01;100.00
52949;BME280;38812;50.942;3.644;2023-07-29T02:22:45;100801.09;;;16.04;100.00
52949;BME280;38812;50.942;3.644;2023-07-29T02:25:11;100770.53;;;15.97;100.00
52949;BME280;38812;50.942;3.644;2023-07-29T02:27:36;100753.97;;;15.92;100.00
52949;BME280;38812;50.942;3.644;2023-07-29T02:30:02;100746.94;;;15.91;100.00
52949;BME280;38812;50.942;3.644;2023-07-29T02:32:28;100773.16;;;15.97;100.00
52949;BME280;38812;50.942;3.644;2023-07-29T02:34:53;100752.50;;;15.85;100.00
52949;BME280;38812;50.942;3.644;2023-07-29T02:37:19;100755.94;;;15.87;100.00
52949;BME280;38812;50.942;3.644;2023-07-29T02:39:44;100735.44;;;15.72;100.00
52949;BME280;38812;50.942;3.644;2023-07-29T02:42:10;100762.47;;;15.80;100.00
52949;BME280;38812;50.942;3.644;2023-07-29T02:44:35;100741.13;;;15.63;100.00
52949;BME280;38812;50.942;3.644;2023-07-29T02:47:00;100720.78;;;15.43;100.00
52949;BME280;38812;50.942;3.644;2023-07-29T02:49:26;100782.97;;;15.75;100.00
52949;BME280;38812;50.942;3.644;2023-07-29T02:51:51;100769.06;;;15.70;100.00
52949;BME280;38812;50.942;3.644;2023-07-29T02:54:16;100729.56;;;15.43;100.00
52949;BME280;38812;50.942;3.644;2023-07-29T02:56:42;100775.50;;;15.64;100.00
52949;BME280;38812;50.942;3.644;2023-07-29T02:59:07;100771.19;;;15.62;100.00
52949;BME280;38812;50.942;3.644;2023-07-29T03:01:33;100778.19;;;15.63;100.00
52949;BME280;38812;50.942;3.644;2023-07-29T03:03:59;100778.06;;;15.66;100.00
52949;BME280;38812;50.942;3.644;2023-07-29T03:06:24;100758.16;;;15.57;100.00
52949;BME280;38812;50.942;3.644;2023-07-29T03:08:50;100783.50;;;15.63;100.00
52949;BME280;38812;50.942;3.644;2023-07-29T03:11:16;100796.53;;;15.67;100.00
52949;BME280;38812;50.942;3.644;2023-07-29T03:13:41;100750.75;;;15.43;100.00
52949;BME280;38812;50.942;3.644;2023-07-29T03:16:08;100792.84;;;15.71;100.00
52949;BME280;38812;50.942;3.644;2023-07-29T03:18:34;100783.13;;;15.72;100.00
52949;BME280;38812;50.942;3.644;2023-07-29T03:21:00;100777.09;;;15.68;100.00
52949;BME280;38812;50.942;3.644;2023-07-29T03:23:25;100766.03;;;15.59;100.00
52949;BME280;38812;50.942;3.644;2023-07-29T03:25:51;100771.47;;;15.56;100.00
52949;BME280;38812;50.942;3.644;2023-07-29T03:28:18;100762.44;;;15.60;100.00
52949;BME280;38812;50.942;3.644;2023-07-29T03:30:43;100769.34;;;15.64;100.00
52949;BME280;38812;50.942;3.644;2023-07-29T03:33:09;100782.97;;;15.75;100.00
52949;BME280;38812;50.942;3.644;2023-07-29T03:35:34;100761.69;;;15.58;100.00
52949;BME280;38812;50.942;3.644;2023-07-29T03:38:00;100781.25;;;15.74;100.00
52949;BME280;38812;50.942;3.644;2023-07-29T03:40:25;100781.53;;;15.68;100.00
52949;BME280;38812;50.942;3.644;2023-07-29T03:42:50;100754.06;;;15.49;100.00
52949;BME280;38812;50.942;3.644;2023-07-29T03:45:16;100793.34;;;15.59;100.00
52949;BME280;38812;50.942;3.644;2023-07-29T03:47:41;100789.16;;;15.54;100.00
52949;BME280;38812;50.942;3.644;2023-07-29T03:50:07;100767.63;;;15.41;100.00
52949;BME280;38812;50.942;3.644;2023-07-29T03:52:33;100791.44;;;15.63;100.00
52949;BME280;38812;50.942;3.644;2023-07-29T03:54:58;100781.06;;;15.58;100.00
52949;BME280;38812;50.942;3.644;2023-07-29T03:57:24;100784.22;;;15.66;100.00
52949;BME280;38812;50.942;3.644;2023-07-29T03:59:49;100791.19;;;15.69;100.00
52949;BME280;38812;50.942;3.644;2023-07-29T04:02:14;100783.25;;;15.69;100.00
52949;BME280;38812;50.942;3.644;2023-07-29T04:04:40;100763.41;;;15.59;100.00
52949;BME280;38812;50.942;3.644;2023-07-29T04:07:07;100755.56;;;15.56;100.00
52949;BME280;38812;50.942;3.644;2023-07-29T04:09:34;100782.50;;;15.65;100.00
52949;BME280;38812;50.942;3.644;2023-07-29T04:11:59;100778.19;;;15.63;100.00
52949;BME280;38812;50.942;3.644;2023-07-29T04:14:25;100774.56;;;15.65;100.00
52949;BME280;38812;50.942;3.644;2023-07-29T04:16:50;100779.66;;;15.70;100.00
52949;BME280;38812;50.942;3.644;2023-07-29T04:19:16;100769.06;;;15.70;100.00
52949;BME280;38812;50.942;3.644;2023-07-29T04:21:41;100761.31;;;15.65;100.00
52949;BME280;38812;50.942;3.644;2023-07-29T04:24:06;100757.00;;;15.63;100.00
52949;BME280;38812;50.942;3.644;2023-07-29T04:26:32;100753.94;;;15.52;100.00
52949;BME280;38812;50.942;3.644;2023-07-29T04:28:58;100778.19;;;15.63;100.00
52949;BME280;38812;50.942;3.644;2023-07-29T04:31:23;100779.34;;;15.57;100.00
52949;BME280;38812;50.942;3.644;2023-07-29T04:33:49;100781.94;;;15.59;100.00
52949;BME280;38812;50.942;3.644;2023-07-29T04:36:14;100781.78;;;15.62;100.00
52949;BME280;38812;50.942;3.644;2023-07-29T04:38:39;100778.75;;;15.71;100.00
52949;BME280;38812;50.942;3.644;2023-07-29T04:41:05;100743.13;;;15.58;100.00
52949;BME280;38812;50.942;3.644;2023-07-29T04:43:32;100773.81;;;15.82;100.00
52949;BME280;38812;50.942;3.644;2023-07-29T04:45:57;100746.75;;;15.75;100.00
52949;BME280;38812;50.942;3.644;2023-07-29T04:48:23;100745.16;;;15.71;100.00
52949;BME280;38812;50.942;3.644;2023-07-29T04:50:48;100720.22;;;15.57;100.00
52949;BME280;38812;50.942;3.644;2023-07-29T04:53:14;100756.38;;;15.78;100.00
52949;BME280;38812;50.942;3.644;2023-07-29T04:55:41;100753.97;;;15.72;100.00
52949;BME280;38812;50.942;3.644;2023-07-29T04:58:08;100751.47;;;15.69;100.00
52949;BME280;38812;50.942;3.644;2023-07-29T05:00:33;100751.47;;;15.69;100.00
52949;BME280;38812;50.942;3.644;2023-07-29T05:02:59;100737.84;;;15.58;100.00
52949;BME280;38812;50.942;3.644;2023-07-29T05:05:24;100763.66;;;15.73;100.00
52949;BME280;38812;50.942;3.644;2023-07-29T05:07:49;100763.53;;;15.76;100.00
52949;BME280;38812;50.942;3.644;2023-07-29T05:10:15;100734.38;;;15.76;100.00
52949;BME280;38812;50.942;3.644;2023-07-29T05:12:40;100745.03;;;15.95;100.00
52949;BME280;38812;50.942;3.644;2023-07-29T05:15:06;100761.59;;;16.19;100.00
52949;BME280;38812;50.942;3.644;2023-07-29T05:17:32;100754.78;;;16.32;100.00
52949;BME280;38812;50.942;3.644;2023-07-29T05:19:57;100730.66;;;16.38;100.00
52949;BME280;38812;50.942;3.644;2023-07-29T05:22:23;100736.69;;;16.60;100.00
52949;BME280;38812;50.942;3.644;2023-07-29T05:24:48;100739.25;;;16.81;100.00
52949;BME280;38812;50.942;3.644;2023-07-29T05:27:13;100725.09;;;16.99;100.00
52949;BME280;38812;50.942;3.644;2023-07-29T05:29:39;100710.19;;;17.13;100.00
52949;BME280;38812;50.942;3.644;2023-07-29T05:32:04;100693.31;;;16.97;100.00
52949;BME280;38812;50.942;3.644;2023-07-29T05:34:30;100734.31;;;17.95;100.00
52949;BME280;38812;50.942;3.644;2023-07-29T05:36:55;100725.09;;;19.42;100.00
52949;BME280;38812;50.942;3.644;2023-07-29T05:39:21;100694.13;;;20.55;100.00
52949;BME280;38812;50.942;3.644;2023-07-29T05:41:46;100710.75;;;21.39;100.00
52949;BME280;38812;50.942;3.644;2023-07-29T05:44:12;100700.38;;;21.08;100.00
52949;BME280;38812;50.942;3.644;2023-07-29T05:46:37;100719.88;;;21.23;100.00
52949;BME280;38812;50.942;3.644;2023-07-29T05:49:03;100688.75;;;21.86;100.00
52949;BME280;38812;50.942;3.644;2023-07-29T05:51:28;100707.47;;;21.74;100.00
52949;BME280;38812;50.942;3.644;2023-07-29T05:53:53;100708.63;;;20.37;100.00
52949;BME280;38812;50.942;3.644;2023-07-29T05:56:19;100720.09;;;19.22;100.00
52949;BME280;38812;50.942;3.644;2023-07-29T05:58:44;100707.28;;;18.67;100.00
52949;BME280;38812;50.942;3.644;2023-07-29T06:01:10;100717.75;;;18.55;100.00
52949;BME280;38812;50.942;3.644;2023-07-29T06:03:35;100708.72;;;18.26;100.00
52949;BME280;38812;50.942;3.644;2023-07-29T06:06:00;100733.59;;;18.40;100.00
52949;BME280;38812;50.942;3.644;2023-07-29T06:08:26;100681.59;;;18.03;100.00
52949;BME280;38812;50.942;3.644;2023-07-29T06:10:53;100740.78;;;18.23;100.00
52949;BME280;38812;50.942;3.644;2023-07-29T06:13:19;100698.84;;;17.79;100.00
52949;BME280;38812;50.942;3.644;2023-07-29T06:15:44;100704.41;;;17.57;100.00
52949;BME280;38812;50.942;3.644;2023-07-29T06:18:09;100743.56;;;17.71;100.00
52949;BME280;38812;50.942;3.644;2023-07-29T06:20:35;100723.34;;;17.51;100.00
52949;BME280;38812;50.942;3.644;2023-07-29T06:23:00;100744.31;;;17.56;100.00
52949;BME280;38812;50.942;3.644;2023-07-29T06:25:27;100738.06;;;17.39;100.00
52949;BME280;38812;50.942;3.644;2023-07-29T06:27:52;100761.53;;;17.48;100.00
52949;BME280;38812;50.942;3.644;2023-07-29T06:30:18;100743.69;;;17.33;100.00
52949;BME280;38812;50.942;3.644;2023-07-29T06:32:43;100753.56;;;17.48;100.00
52949;BME280;38812;50.942;3.644;2023-07-29T06:35:08;100757.78;;;17.53;100.00
52949;BME280;38812;50.942;3.644;2023-07-29T06:37:34;100757.44;;;17.59;100.00
52949;BME280;38812;50.942;3.644;2023-07-29T06:39:59;100754.81;;;17.76;100.00
52949;BME280;38812;50.942;3.644;2023-07-29T06:42:25;100729.94;;;17.60;100.00
52949;BME280;38812;50.942;3.644;2023-07-29T06:44:50;100762.69;;;17.95;100.00
52949;BME280;38812;50.942;3.644;2023-07-29T06:47:15;100760.84;;;18.12;100.00
52949;BME280;38812;50.942;3.644;2023-07-29T06:49:41;100762.88;;;18.07;100.00
52949;BME280;38812;50.942;3.644;2023-07-29T06:52:06;100750.69;;;18.03;100.00
52949;BME280;38812;50.942;3.644;2023-07-29T06:54:32;100748.34;;;18.14;100.00
52949;BME280;38812;50.942;3.644;2023-07-29T06:56:57;100730.31;;;18.20;100.00
52949;BME280;38812;50.942;3.644;2023-07-29T06:59:23;100732.00;;;18.38;100.00
52949;BME280;38812;50.942;3.644;2023-07-29T07:01:50;100741.41;;;18.43;100.00
52949;BME280;38812;50.942;3.644;2023-07-29T07:04:15;100752.31;;;18.55;100.00
52949;BME280;38812;50.942;3.644;2023-07-29T07:06:40;100696.19;;;18.28;100.00
52949;BME280;38812;50.942;3.644;2023-07-29T07:09:06;100743.59;;;18.68;100.00
52949;BME280;38812;50.942;3.644;2023-07-29T07:11:32;100734.66;;;18.85;100.00
52949;BME280;38812;50.942;3.644;2023-07-29T07:13:57;100723.72;;;19.05;100.00
52949;BME280;38812;50.942;3.644;2023-07-29T07:16:22;100701.81;;;19.16;100.00
52949;BME280;38812;50.942;3.644;2023-07-29T07:18:48;100722.25;;;19.45;100.00
52949;BME280;38812;50.942;3.644;2023-07-29T07:21:13;100727.63;;;19.60;100.00
52949;BME280;38812;50.942;3.644;2023-07-29T07:23:39;100728.66;;;19.57;100.00
52949;BME280;38812;50.942;3.644;2023-07-29T07:26:04;100719.19;;;19.67;100.00
52949;BME280;38812;50.942;3.644;2023-07-29T07:28:30;100707.66;;;19.67;100.00
52949;BME280;38812;50.942;3.644;2023-07-29T07:30:55;100709.75;;;19.62;100.00
52949;BME280;38812;50.942;3.644;2023-07-29T07:33:21;100726.16;;;19.84;100.00
52949;BME280;38812;50.942;3.644;2023-07-29T07:35:47;100722.31;;;20.16;100.00
52949;BME280;38812;50.942;3.644;2023-07-29T07:38:12;100740.53;;;20.52;100.00
52949;BME280;38812;50.942;3.644;2023-07-29T07:40:37;100704.13;;;20.37;100.00
52949;BME280;38812;50.942;3.644;2023-07-29T07:43:03;100726.47;;;20.77;100.00
52949;BME280;38812;50.942;3.644;2023-07-29T07:45:28;100727.28;;;21.05;100.00
52949;BME280;38812;50.942;3.644;2023-07-29T07:47:54;100738.84;;;21.45;100.00
52949;BME280;38812;50.942;3.644;2023-07-29T07:50:19;100723.38;;;21.37;100.00
52949;BME280;38812;50.942;3.644;2023-07-29T07:52:45;100726.53;;;21.30;100.00
52949;BME280;38812;50.942;3.644;2023-07-29T07:55:11;100723.06;;;21.15;100.00
52949;BME280;38812;50.942;3.644;2023-07-29T07:57:36;100734.25;;;20.80;100.00
52949;BME280;38812;50.942;3.644;2023-07-29T08:00:02;100740.81;;;21.16;100.00
52949;BME280;38812;50.942;3.644;2023-07-29T08:02:29;100741.31;;;21.35;100.00
52949;BME280;38812;50.942;3.644;2023-07-29T08:04:54;100729.97;;;21.32;100.00
52949;BME280;38812;50.942;3.644;2023-07-29T08:07:20;100745.84;;;21.60;100.00
52949;BME280;38812;50.942;3.644;2023-07-29T08:09:45;100743.94;;;21.75;100.00
52949;BME280;38812;50.942;3.644;2023-07-29T08:12:10;100725.22;;;21.62;100.00
52949;BME280;38812;50.942;3.644;2023-07-29T08:14:36;100749.28;;;21.75;100.00
52949;BME280;38812;50.942;3.644;2023-07-29T08:17:01;100734.00;;;21.77;100.00
52949;BME280;38812;50.942;3.644;2023-07-29T08:19:27;100740.50;;;21.73;100.00
52949;BME280;38812;50.942;3.644;2023-07-29T08:21:52;100735.28;;;21.97;100.00
52949;BME280;38812;50.942;3.644;2023-07-29T08:24:18;100725.31;;;21.61;100.00
52949;BME280;38812;50.942;3.644;2023-07-29T08:26:43;100722.31;;;21.65;100.00
52949;BME280;38812;50.942;3.644;2023-07-29T08:29:08;100740.09;;;21.79;100.00
52949;BME280;38812;50.942;3.644;2023-07-29T08:31:34;100740.13;;;22.04;100.00
52949;BME280;38812;50.942;3.644;2023-07-29T08:34:00;100730.13;;;22.32;100.00
52949;BME280;38812;50.942;3.644;2023-07-29T08:36:26;100734.84;;;22.28;100.00
52949;BME280;38812;50.942;3.644;2023-07-29T08:38:51;100712.91;;;22.23;100.00
52949;BME280;38812;50.942;3.644;2023-07-29T08:41:21;100724.91;;;22.17;100.00
52949;BME280;38812;50.942;3.644;2023-07-29T08:43:56;100722.31;;;21.90;100.00
52949;BME280;38812;50.942;3.644;2023-07-29T08:46:25;100731.53;;;21.74;100.00
52949;BME280;38812;50.942;3.644;2023-07-29T08:48:51;100718.25;;;21.60;100.00
52949;BME280;38812;50.942;3.644;2023-07-29T08:51:17;100722.00;;;21.17;100.00
52949;BME280;38812;50.942;3.644;2023-07-29T08:53:43;100733.56;;;21.18;100.00
52949;BME280;38812;50.942;3.644;2023-07-29T08:56:08;100712.84;;;20.95;100.00
52949;BME280;38812;50.942;3.644;2023-07-29T08:58:34;100710.97;;;20.82;100.00
52949;BME280;38812;50.942;3.644;2023-07-29T09:01:00;100732.78;;;20.89;100.00
52949;BME280;38812;50.942;3.644;2023-07-29T09:03:26;100720.41;;;20.88;100.00
52949;BME280;38812;50.942;3.644;2023-07-29T09:05:52;100702.66;;;20.87;100.00
52949;BME280;38812;50.942;3.644;2023-07-29T09:08:18;100733.75;;;21.15;100.00
52949;BME280;38812;50.942;3.644;2023-07-29T09:10:44;100716.00;;;21.14;100.00
52949;BME280;38812;50.942;3.644;2023-07-29T09:13:09;100726.25;;;21.34;100.00
52949;BME280;38812;50.942;3.644;2023-07-29T09:15:36;100734.31;;;21.60;100.00
52949;BME280;38812;50.942;3.644;2023-07-29T09:18:14;100699.84;;;21.68;100.00
52949;BME280;38812;50.942;3.644;2023-07-29T09:20:41;100697.72;;;21.47;100.00
52949;BME280;38812;50.942;3.644;2023-07-29T09:23:10;100724.78;;;21.55;100.00
52949;BME280;38812;50.942;3.644;2023-07-29T09:25:37;100732.59;;;21.59;100.00
52949;BME280;38812;50.942;3.644;2023-07-29T09:28:08;100715.81;;;21.82;100.00
52949;BME280;38812;50.942;3.644;2023-07-29T09:30:34;100721.91;;;22.09;100.00
52949;BME280;38812;50.942;3.644;2023-07-29T09:33:00;100718.69;;;22.30;100.00
52949;BME280;38812;50.942;3.644;2023-07-29T09:35:28;100700.25;;;22.98;100.00
52949;BME280;38812;50.942;3.644;2023-07-29T09:37:53;100691.53;;;22.83;100.00
52949;BME280;38812;50.942;3.644;2023-07-29T09:40:19;100714.56;;;22.49;100.00
52949;BME280;38812;50.942;3.644;2023-07-29T09:42:52;100701.56;;;21.94;100.00
52949;BME280;38812;50.942;3.644;2023-07-29T09:45:25;100718.47;;;21.69;100.00
52949;BME280;38812;50.942;3.644;2023-07-29T09:47:52;100721.59;;;21.76;100.00
52949;BME280;38812;50.942;3.644;2023-07-29T09:50:18;100723.63;;;21.60;100.00
52949;BME280;38812;50.942;3.644;2023-07-29T09:52:44;100707.25;;;21.12;100.00
52949;BME280;38812;50.942;3.644;2023-07-29T09:55:12;100699.88;;;20.76;100.00
52949;BME280;38812;50.942;3.644;2023-07-29T09:57:41;100683.44;;;20.41;100.00
52949;BME280;38812;50.942;3.644;2023-07-29T10:00:07;100730.28;;;20.59;100.00
52949;BME280;38812;50.942;3.644;2023-07-29T10:02:38;100728.44;;;20.47;100.00
52949;BME280;38812;50.942;3.644;2023-07-29T10:05:05;100708.22;;;20.14;100.00
52949;BME280;38812;50.942;3.644;2023-07-29T10:07:31;100740.06;;;19.89;100.00
52949;BME280;38812;50.942;3.644;2023-07-29T10:09:57;100753.69;;;20.13;100.00
52949;BME280;38812;50.942;3.644;2023-07-29T10:12:24;100742.34;;;20.09;100.00
52949;BME280;38812;50.942;3.644;2023-07-29T10:14:50;100743.63;;;19.60;100.00
52949;BME280;38812;50.942;3.644;2023-07-29T10:17:16;100757.91;;;19.43;100.00
52949;BME280;38812;50.942;3.644;2023-07-29T10:19:42;100757.00;;;19.28;100.00
52949;BME280;38812;50.942;3.644;2023-07-29T10:22:11;100769.00;;;19.35;100.00
52949;BME280;38812;50.942;3.644;2023-07-29T10:24:39;100742.41;;;19.49;100.00
52949;BME280;38812;50.942;3.644;2023-07-29T10:27:09;100753.91;;;19.66;100.00
52949;BME280;38812;50.942;3.644;2023-07-29T10:29:38;100746.56;;;19.55;100.00
52949;BME280;38812;50.942;3.644;2023-07-29T10:32:04;100717.44;;;19.22;100.00
52949;BME280;38812;50.942;3.644;2023-07-29T10:34:31;100756.44;;;19.23;100.00
52949;BME280;38812;50.942;3.644;2023-07-29T10:36:59;100765.88;;;19.13;100.00
52949;BME280;38812;50.942;3.644;2023-07-29T10:39:25;100778.19;;;19.00;100.00
52949;BME280;38812;50.942;3.644;2023-07-29T10:41:55;100763.53;;;18.77;100.00
52949;BME280;38812;50.942;3.644;2023-07-29T10:47:15;100796.72;;;18.86;100.00
52949;BME280;38812;50.942;3.644;2023-07-29T10:49:41;100806.78;;;18.96;100.00
52949;BME280;38812;50.942;3.644;2023-07-29T10:52:07;100802.78;;;18.56;100.00
52949;BME280;38812;50.942;3.644;2023-07-29T10:54:43;100827.53;;;18.41;100.00
52949;BME280;38812;50.942;3.644;2023-07-29T10:57:13;100847.53;;;18.32;100.00
52949;BME280;38812;50.942;3.644;2023-07-29T10:59:38;100862.00;;;18.27;100.00
52949;BME280;38812;50.942;3.644;2023-07-29T11:02:12;100861.94;;;18.28;100.00
52949;BME280;38812;50.942;3.644;2023-07-29T11:04:50;100850.66;;;18.23;100.00
52949;BME280;38812;50.942;3.644;2023-07-29T11:17:35;100837.53;;;18.37;100.00
52949;BME280;38812;50.942;3.644;2023-07-29T11:20:02;100821.56;;;18.37;100.00
52949;BME280;38812;50.942;3.644;2023-07-29T11:22:29;100795.25;;;18.64;100.00
52949;BME280;38812;50.942;3.644;2023-07-29T11:24:54;100798.13;;;18.77;100.00
52949;BME280;38812;50.942;3.644;2023-07-29T11:27:20;100814.53;;;19.01;100.00
52949;BME280;38812;50.942;3.644;2023-07-29T11:29:46;100815.78;;;19.71;100.00
52949;BME280;38812;50.942;3.644;2023-07-29T11:32:12;100762.88;;;19.93;100.00
52949;BME280;38812;50.942;3.644;2023-07-29T11:34:37;100798.75;;;20.46;100.00
52949;BME280;38812;50.942;3.644;2023-07-29T11:37:05;100776.00;;;20.96;100.00
52949;BME280;38812;50.942;3.644;2023-07-29T11:39:33;100788.09;;;20.46;100.00
52949;BME280;38812;50.942;3.644;2023-07-29T11:41:58;100785.25;;;21.17;100.00
52949;BME280;38812;50.942;3.644;2023-07-29T11:44:24;100781.38;;;21.87;100.00
52949;BME280;38812;50.942;3.644;2023-07-29T11:46:50;100751.31;;;21.59;100.00
52949;BME280;38812;50.942;3.644;2023-07-29T11:49:15;100769.44;;;22.18;100.00
52949;BME280;38812;50.942;3.644;2023-07-29T11:51:41;100735.91;;;21.75;100.00
52949;BME280;38812;50.942;3.644;2023-07-29T11:54:07;100766.50;;;22.47;100.00
52949;BME280;38812;50.942;3.644;2023-07-29T11:56:34;100758.28;;;22.74;100.00
52949;BME280;38812;50.942;3.644;2023-07-29T11:59:01;100743.06;;;22.74;100.00
52949;BME280;38812;50.942;3.644;2023-07-29T12:01:28;100758.81;;;22.92;100.00
52949;BME280;38812;50.942;3.644;2023-07-29T12:03:55;100750.72;;;22.06;100.00
52949;BME280;38812;50.942;3.644;2023-07-29T12:06:21;100731.97;;;21.80;100.00
52949;BME280;38812;50.942;3.644;2023-07-29T12:08:47;100721.16;;;21.82;100.00
52949;BME280;38812;50.942;3.644;2023-07-29T12:11:13;100729.81;;;21.73;100.00
52949;BME280;38812;50.942;3.644;2023-07-29T12:13:41;100721.06;;;21.83;100.00
52949;BME280;38812;50.942;3.644;2023-07-29T12:16:07;100728.81;;;22.37;100.00
52949;BME280;38812;50.942;3.644;2023-07-29T12:18:36;100743.75;;;22.03;100.00
52949;BME280;38812;50.942;3.644;2023-07-29T12:21:02;100728.31;;;21.81;100.00
52949;BME280;38812;50.942;3.644;2023-07-29T12:23:29;100740.91;;;21.67;100.00
52949;BME280;38812;50.942;3.644;2023-07-29T12:25:59;100703.56;;;21.27;100.00
52949;BME280;38812;50.942;3.644;2023-07-29T12:28:25;100734.00;;;21.77;100.00
52949;BME280;38812;50.942;3.644;2023-07-29T12:30:54;100730.25;;;21.92;100.00
52949;BME280;38812;50.942;3.644;2023-07-29T12:33:33;100737.75;;;22.12;100.00
52949;BME280;38812;50.942;3.644;2023-07-29T12:35:59;100728.22;;;22.70;100.00
52949;BME280;38812;50.942;3.644;2023-07-29T12:38:28;100717.94;;;23.01;100.00
52949;BME280;38812;50.942;3.644;2023-07-29T12:40:54;100727.59;;;23.38;100.00
52949;BME280;38812;50.942;3.644;2023-07-29T12:43:19;100706.69;;;23.54;100.00
52949;BME280;38812;50.942;3.644;2023-07-29T12:45:45;100722.91;;;23.64;100.00
52949;BME280;38812;50.942;3.644;2023-07-29T12:48:11;100728.03;;;23.56;100.00
52949;BME280;38812;50.942;3.644;2023-07-29T12:50:37;100702.63;;;23.38;100.00
52949;BME280;38812;50.942;3.644;2023-07-29T12:53:06;100692.56;;;23.64;100.00